Time,TemperatureF,DewpointF,PressureIn,WindDirection,WindDirectionDegrees,WindSpeedMPH,WindSpeedGustMPH,Humidity,HourlyPrecipIn,Conditions,Clouds,dailyrainin,SolarRadiationWatts/m^2,SoftwareType,DateUTC
2013-03-12 00:00:00,65.1,60.1,29.88,SSE,149,7.0,15.0,84,0.00,,,0.00,0.0,meteohub,2013-03-12 04:00:00,
2013-03-12 00:05:00,64.9,59.9,29.88,SSW,203,5.0,15.0,84,0.00,,,0.00,0.0,meteohub,2013-03-12 04:05:00,
2013-03-12 00:10:00,64.8,60.1,29.88,SSE,166,7.0,13.0,85,0.00,,,0.00,0.0,meteohub,2013-03-12 04:10:00,
2013-03-12 00:15:00,64.8,60.1,29.87,South,187,1.0,13.0,85,0.01,,,0.01,0.0,meteohub,2013-03-12 04:15:00,
2013-03-12 00:20:00,64.6,59.9,29.87,SSE,150,4.0,13.0,85,0.01,,,0.01,0.0,meteohub,2013-03-12 04:20:00,
2013-03-12 00:25:00,64.6,59.9,29.87,SSE,153,2.0,14.0,85,0.01,,,0.01,0.0,meteohub,2013-03-12 04:25:00,
2013-03-12 00:31:00,64.6,60.3,29.87,South,180,4.0,14.0,86,0.01,,,0.01,0.0,meteohub,2013-03-12 04:31:00,
2013-03-12 00:36:00,64.6,60.3,29.87,SSE,158,9.0,13.0,86,0.01,,,0.01,0.0,meteohub,2013-03-12 04:36:00,
2013-03-12 00:41:00,64.6,60.3,29.86,SSE,165,5.0,14.0,86,0.01,,,0.01,0.0,meteohub,2013-03-12 04:41:00,
2013-03-12 00:46:00,64.8,60.4,29.85,SE,136,4.0,15.0,86,0.01,,,0.01,0.0,meteohub,2013-03-12 04:46:00,
2013-03-12 00:51:00,64.6,60.3,29.85,SSE,161,5.0,15.0,86,0.01,,,0.01,0.0,meteohub,2013-03-12 04:51:00,
2013-03-12 00:56:00,64.6,60.3,29.85,South,184,6.0,15.0,86,0.01,,,0.01,0.0,meteohub,2013-03-12 04:56:00,
2013-03-12 01:01:00,64.6,60.3,29.86,SSW,205,6.0,13.0,86,0.01,,,0.01,0.0,meteohub,2013-03-12 05:01:00,
2013-03-12 01:06:00,64.6,60.3,29.85,SE,136,3.0,13.0,86,0.01,,,0.01,0.0,meteohub,2013-03-12 05:06:00,
2013-03-12 01:11:00,64.6,60.6,29.84,SSE,161,3.0,13.0,87,0.01,,,0.01,0.0,meteohub,2013-03-12 05:11:00,
2013-03-12 01:16:00,64.6,60.6,29.85,South,175,4.0,11.0,87,0.00,,,0.01,0.0,meteohub,2013-03-12 05:16:00,
2013-03-12 01:22:00,64.4,60.4,29.84,South,178,6.0,9.0,87,0.00,,,0.01,0.0,meteohub,2013-03-12 05:22:00,
2013-03-12 01:27:00,64.4,60.4,29.83,SSE,157,3.0,17.0,87,0.00,,,0.01,0.0,meteohub,2013-03-12 05:27:00,
2013-03-12 01:32:00,64.4,60.4,29.82,South,169,4.0,17.0,87,0.00,,,0.01,0.0,meteohub,2013-03-12 05:32:00,
2013-03-12 01:37:00,64.4,60.4,29.83,SSW,200,7.0,15.0,87,0.00,,,0.01,0.0,meteohub,2013-03-12 05:37:00,
2013-03-12 01:42:00,64.2,60.3,29.83,SSW,198,0.0,13.0,87,0.00,,,0.01,0.0,meteohub,2013-03-12 05:42:00,
2013-03-12 01:47:00,64.4,60.8,29.83,SE,133,5.0,13.0,88,0.00,,,0.01,0.0,meteohub,2013-03-12 05:47:00,
2013-03-12 01:52:00,64.6,61.0,29.83,SE,134,3.0,12.0,88,0.00,,,0.01,0.0,meteohub,2013-03-12 05:52:00,
2013-03-12 01:57:00,64.4,60.8,29.82,SSE,156,3.0,11.0,88,0.00,,,0.01,0.0,meteohub,2013-03-12 05:57:00,
2013-03-12 02:02:00,64.6,61.0,29.83,South,173,3.0,12.0,88,0.00,,,0.01,0.0,meteohub,2013-03-12 06:02:00,
2013-03-12 02:07:00,64.6,61.0,29.84,South,180,3.0,12.0,88,0.00,,,0.01,0.0,meteohub,2013-03-12 06:07:00,
2013-03-12 02:12:00,64.8,61.2,29.84,SSW,193,3.0,12.0,88,0.00,,,0.01,0.0,meteohub,2013-03-12 06:12:00,
2013-03-12 02:17:00,64.8,61.2,29.84,South,182,3.0,12.0,88,0.00,,,0.01,0.0,meteohub,2013-03-12 06:17:00,
2013-03-12 02:22:00,64.8,61.2,29.84,South,187,5.0,12.0,88,0.00,,,0.01,0.0,meteohub,2013-03-12 06:22:00,
2013-03-12 02:27:00,64.8,61.2,29.83,SSE,149,8.0,14.0,88,0.00,,,0.01,0.0,meteohub,2013-03-12 06:27:00,
2013-03-12 02:32:00,64.8,61.2,29.84,SSE,165,2.0,14.0,88,0.00,,,0.01,0.0,meteohub,2013-03-12 06:32:00,
2013-03-12 02:37:00,64.8,61.2,29.83,SW,217,5.0,14.0,88,0.00,,,0.01,0.0,meteohub,2013-03-12 06:37:00,
2013-03-12 02:42:00,64.9,61.3,29.84,SSW,194,6.0,11.0,88,0.00,,,0.01,0.0,meteohub,2013-03-12 06:42:00,
2013-03-12 02:47:00,64.9,61.3,29.84,SW,226,8.0,11.0,88,0.00,,,0.01,0.0,meteohub,2013-03-12 06:47:00,
2013-03-12 02:52:00,65.1,61.5,29.84,SSW,195,7.0,11.0,88,0.00,,,0.01,0.0,meteohub,2013-03-12 06:52:00,
2013-03-12 02:57:00,65.1,61.5,29.84,South,170,2.0,12.0,88,0.00,,,0.01,0.0,meteohub,2013-03-12 06:57:00,
2013-03-12 03:02:00,65.1,61.5,29.84,South,173,3.0,12.0,88,0.00,,,0.01,0.0,meteohub,2013-03-12 07:02:00,
2013-03-12 03:07:00,65.1,61.5,29.83,South,169,2.0,12.0,88,0.00,,,0.01,0.0,meteohub,2013-03-12 07:07:00,
2013-03-12 03:12:00,64.9,61.3,29.83,South,175,2.0,11.0,88,0.00,,,0.01,0.0,meteohub,2013-03-12 07:12:00,
2013-03-12 03:17:00,64.9,61.3,29.83,SE,128,5.0,11.0,88,0.00,,,0.01,0.0,meteohub,2013-03-12 07:17:00,
2013-03-12 03:22:00,64.9,61.3,29.83,SSE,157,2.0,9.0,88,0.00,,,0.01,0.0,meteohub,2013-03-12 07:22:00,
2013-03-12 03:27:00,64.9,61.3,29.82,South,174,1.0,9.0,88,0.00,,,0.01,0.0,meteohub,2013-03-12 07:27:00,
2013-03-12 03:32:00,64.9,61.3,29.82,SE,144,4.0,9.0,88,0.00,,,0.01,0.0,meteohub,2013-03-12 07:32:00,
2013-03-12 03:38:00,64.9,61.3,29.83,SSW,194,5.0,9.0,88,0.00,,,0.01,0.0,meteohub,2013-03-12 07:38:00,
2013-03-12 03:43:00,64.8,61.5,29.82,SE,145,6.0,8.0,89,0.00,,,0.01,0.0,meteohub,2013-03-12 07:43:00,
2013-03-12 03:48:00,64.8,61.5,29.83,SSE,160,0.0,8.0,89,0.00,,,0.01,0.0,meteohub,2013-03-12 07:48:00,
2013-03-12 03:53:00,64.8,61.5,29.83,South,171,1.0,7.0,89,0.00,,,0.01,0.0,meteohub,2013-03-12 07:53:00,
2013-03-12 03:58:00,64.8,61.5,29.83,SE,144,0.0,6.0,89,0.00,,,0.01,0.0,meteohub,2013-03-12 07:58:00,
2013-03-12 04:03:00,64.8,61.5,29.82,South,173,1.0,5.0,89,0.00,,,0.01,0.0,meteohub,2013-03-12 08:03:00,
2013-03-12 04:08:00,64.8,61.5,29.82,South,169,1.0,6.0,89,0.00,,,0.01,0.0,meteohub,2013-03-12 08:08:00,
2013-03-12 04:13:00,64.8,61.5,29.83,SSW,203,0.0,6.0,89,0.00,,,0.01,0.0,meteohub,2013-03-12 08:13:00,
2013-03-12 04:18:00,64.6,61.3,29.82,South,172,1.0,6.0,89,0.00,,,0.01,0.0,meteohub,2013-03-12 08:18:00,
2013-03-12 04:23:00,64.6,61.3,29.82,SSE,161,0.0,6.0,89,0.00,,,0.01,0.0,meteohub,2013-03-12 08:23:00,
2013-03-12 04:28:00,64.6,61.0,29.81,SSW,194,0.0,-999.0,89,-99.99,,,0.01,0,weatherlink.com 1.10,2013-03-12 08:28:00,
2013-03-12 04:33:00,64.8,61.5,29.82,South,170,2.0,6.0,89,0.00,,,0.01,0.0,meteohub,2013-03-12 08:33:00,
2013-03-12 04:38:00,64.8,61.5,29.83,SSE,152,3.0,4.0,89,0.00,,,0.01,0.0,meteohub,2013-03-12 08:38:00,
2013-03-12 04:43:00,64.6,61.3,29.83,SSE,153,3.0,4.0,89,0.00,,,0.01,0.0,meteohub,2013-03-12 08:43:00,
2013-03-12 04:48:00,64.6,61.3,29.83,SSW,205,0.0,4.0,89,0.00,,,0.01,0.0,meteohub,2013-03-12 08:48:00,
2013-03-12 04:53:00,64.6,61.3,29.83,South,179,0.0,5.0,89,0.01,,,0.02,0.0,meteohub,2013-03-12 08:53:00,
2013-03-12 04:58:00,64.4,61.2,29.83,South,180,0.0,5.0,89,0.01,,,0.02,0.0,meteohub,2013-03-12 08:58:00,
2013-03-12 05:03:00,64.2,61.0,29.83,South,169,0.0,2.0,89,0.01,,,0.02,0.0,meteohub,2013-03-12 09:03:00,
2013-03-12 05:08:00,64.2,61.0,29.83,South,169,0.0,2.0,89,0.01,,,0.02,0.0,meteohub,2013-03-12 09:08:00,
2013-03-12 05:13:00,64.0,60.8,29.83,SSE,168,0.0,2.0,89,0.01,,,0.02,0.0,meteohub,2013-03-12 09:13:00,
2013-03-12 05:18:00,64.0,60.8,29.83,South,169,0.0,1.0,89,0.01,,,0.02,0.0,meteohub,2013-03-12 09:18:00,
2013-03-12 05:23:00,63.9,60.6,29.83,SSE,168,0.0,1.0,89,0.01,,,0.02,0.0,meteohub,2013-03-12 09:23:00,
2013-03-12 05:28:00,63.9,60.6,29.83,SSE,168,0.0,0.0,89,0.01,,,0.02,0.0,meteohub,2013-03-12 09:28:00,
2013-03-12 05:33:00,63.7,60.4,29.83,South,169,0.0,1.0,89,0.01,,,0.02,0.0,meteohub,2013-03-12 09:33:00,
2013-03-12 05:38:00,63.7,60.6,29.83,South,169,0.0,1.0,90,0.01,,,0.02,0.0,meteohub,2013-03-12 09:38:00,
2013-03-12 05:43:00,63.5,60.4,29.83,South,169,0.0,1.0,90,0.01,,,0.02,0.0,meteohub,2013-03-12 09:43:00,
2013-03-12 05:48:00,63.3,60.3,29.83,South,169,0.0,1.0,90,0.00,,,0.02,0.0,meteohub,2013-03-12 09:48:00,
2013-03-12 05:53:00,63.3,60.3,29.83,SSE,168,0.0,1.0,90,0.00,,,0.02,0.0,meteohub,2013-03-12 09:53:00,
2013-03-12 05:58:00,63.3,60.3,29.83,ESE,121,0.0,1.0,90,0.00,,,0.02,0.0,meteohub,2013-03-12 09:58:00,
2013-03-12 06:03:00,63.1,60.1,29.83,ESE,121,0.0,2.0,90,0.00,,,0.02,0.0,meteohub,2013-03-12 10:03:00,
2013-03-12 06:08:00,63.1,60.1,29.83,ESE,122,0.0,2.0,90,0.00,,,0.02,0.0,meteohub,2013-03-12 10:08:00,
2013-03-12 06:13:00,63.1,60.1,29.83,ESE,122,1.0,3.0,90,0.01,,,0.03,0.0,meteohub,2013-03-12 10:13:00,
2013-03-12 06:18:00,63.0,59.9,29.83,ESE,122,0.0,3.0,90,0.01,,,0.03,0.0,meteohub,2013-03-12 10:18:00,
2013-03-12 06:23:00,63.0,60.3,29.83,SE,129,0.0,3.0,91,0.01,,,0.03,0.0,meteohub,2013-03-12 10:23:00,
2013-03-12 06:28:00,63.0,60.3,29.83,SE,128,1.0,3.0,91,0.01,,,0.03,0.0,meteohub,2013-03-12 10:28:00,
2013-03-12 06:33:00,62.8,60.1,29.83,ESE,121,0.0,3.0,91,0.01,,,0.03,0.0,meteohub,2013-03-12 10:33:00,
2013-03-12 06:38:00,62.8,60.1,29.84,ESE,121,1.0,3.0,91,0.01,,,0.03,0.0,meteohub,2013-03-12 10:38:00,
2013-03-12 06:43:00,62.6,59.9,29.83,ESE,121,0.0,3.0,91,0.01,,,0.03,0.0,meteohub,2013-03-12 10:43:00,
2013-03-12 06:48:00,62.4,59.7,29.84,ESE,121,0.0,3.0,91,0.02,,,0.04,0.0,meteohub,2013-03-12 10:48:00,
2013-03-12 06:53:00,62.4,59.7,29.84,ESE,121,0.0,1.0,91,0.02,,,0.04,0.0,meteohub,2013-03-12 10:53:00,
2013-03-12 06:58:00,62.4,59.7,29.84,ESE,121,0.0,1.0,91,0.02,,,0.04,0.0,meteohub,2013-03-12 10:58:00,
2013-03-12 07:03:00,62.4,59.7,29.83,ESE,122,0.0,2.0,91,0.03,,,0.05,0.0,meteohub,2013-03-12 11:03:00,
2013-03-12 07:08:00,62.4,59.7,29.84,ESE,122,0.0,3.0,91,0.03,,,0.05,0.0,meteohub,2013-03-12 11:08:00,
2013-03-12 07:13:00,62.2,59.9,29.84,East,92,0.0,3.0,92,0.02,,,0.05,0.0,meteohub,2013-03-12 11:13:00,
2013-03-12 07:18:00,62.2,59.9,29.84,East,92,1.0,3.0,92,0.02,,,0.05,0.0,meteohub,2013-03-12 11:18:00,
2013-03-12 07:23:00,62.2,59.9,29.84,East,101,0.0,3.0,92,0.02,,,0.05,0.0,meteohub,2013-03-12 11:23:00,
2013-03-12 07:29:00,62.2,59.9,29.84,SE,139,1.0,3.0,92,0.02,,,0.05,0.0,meteohub,2013-03-12 11:29:00,
2013-03-12 07:34:00,62.2,59.9,29.84,SE,138,1.0,5.0,92,0.02,,,0.05,0.0,meteohub,2013-03-12 11:34:00,
2013-03-12 07:39:00,62.2,59.9,29.84,SE,139,0.0,5.0,92,0.02,,,0.05,0.0,meteohub,2013-03-12 11:39:00,
2013-03-12 07:44:00,62.2,59.9,29.84,ESE,112,0.0,5.0,92,0.02,,,0.05,0.0,meteohub,2013-03-12 11:44:00,
2013-03-12 07:49:00,62.2,59.9,29.84,ESE,119,0.0,4.0,92,0.01,,,0.05,0.0,meteohub,2013-03-12 11:49:00,
2013-03-12 07:54:00,62.1,59.7,29.84,SSE,168,0.0,4.0,92,0.01,,,0.05,0.0,meteohub,2013-03-12 11:54:00,
2013-03-12 07:59:00,62.2,59.9,29.84,ESE,103,0.0,4.0,92,0.01,,,0.05,0.0,meteohub,2013-03-12 11:59:00,
2013-03-12 08:04:00,62.2,59.9,29.84,SSE,167,1.0,4.0,92,0.01,,,0.06,7.0,meteohub,2013-03-12 12:04:00,
2013-03-12 08:09:00,62.1,59.7,29.84,SE,132,0.0,4.0,92,0.01,,,0.06,9.0,meteohub,2013-03-12 12:09:00,
2013-03-12 08:14:00,62.2,59.9,29.85,South,171,3.0,3.0,92,0.02,,,0.07,9.0,meteohub,2013-03-12 12:14:00,
2013-03-12 08:19:00,62.2,59.9,29.85,SSE,154,0.0,3.0,92,0.02,,,0.07,7.0,meteohub,2013-03-12 12:19:00,
2013-03-12 08:24:00,62.4,60.1,29.85,South,191,0.0,6.0,92,0.02,,,0.07,11.0,meteohub,2013-03-12 12:24:00,
2013-03-12 08:29:00,62.4,60.4,29.85,South,172,0.0,6.0,93,0.02,,,0.07,11.0,meteohub,2013-03-12 12:29:00,
2013-03-12 08:34:00,62.6,60.6,29.85,South,171,0.0,6.0,93,0.02,,,0.07,11.0,meteohub,2013-03-12 12:34:00,
2013-03-12 08:39:00,62.8,60.8,29.86,South,172,0.0,4.0,93,0.02,,,0.07,12.0,meteohub,2013-03-12 12:39:00,
2013-03-12 08:44:00,62.8,60.8,29.86,South,171,1.0,3.0,93,0.02,,,0.07,9.0,meteohub,2013-03-12 12:44:00,
2013-03-12 08:49:00,63.0,61.0,29.85,SSE,164,1.0,2.0,93,0.03,,,0.08,9.0,meteohub,2013-03-12 12:49:00,
2013-03-12 08:54:00,63.0,61.0,29.85,SSE,147,3.0,3.0,93,0.03,,,0.08,12.0,meteohub,2013-03-12 12:54:00,
2013-03-12 08:59:00,63.0,61.0,29.85,SSE,152,2.0,3.0,93,0.03,,,0.08,18.0,meteohub,2013-03-12 12:59:00,
2013-03-12 09:04:00,63.0,61.0,29.85,SE,144,0.0,6.0,93,0.03,,,0.09,19.0,meteohub,2013-03-12 13:04:00,
2013-03-12 09:09:00,63.0,61.0,29.85,SSE,148,0.0,6.0,93,0.02,,,0.09,19.0,meteohub,2013-03-12 13:09:00,
2013-03-12 09:14:00,63.0,61.0,29.85,SSE,167,2.0,6.0,93,0.02,,,0.09,18.0,meteohub,2013-03-12 13:14:00,
2013-03-12 09:19:00,63.0,61.0,29.85,SSE,159,0.0,6.0,93,0.02,,,0.09,23.0,meteohub,2013-03-12 13:19:00,
2013-03-12 09:24:00,63.0,61.0,29.86,SE,132,1.0,6.0,93,0.02,,,0.09,21.0,meteohub,2013-03-12 13:24:00,
2013-03-12 09:29:00,63.0,61.0,29.86,SSE,163,0.0,6.0,93,0.02,,,0.09,16.0,meteohub,2013-03-12 13:29:00,
2013-03-12 09:34:00,63.1,61.2,29.86,SSE,166,2.0,5.0,93,0.02,,,0.09,23.0,meteohub,2013-03-12 13:34:00,
2013-03-12 09:39:00,63.0,61.0,29.86,SSE,167,0.0,5.0,93,0.02,,,0.09,18.0,meteohub,2013-03-12 13:39:00,
2013-03-12 09:44:00,63.0,61.0,29.86,SSE,167,0.0,5.0,93,0.03,,,0.10,12.0,meteohub,2013-03-12 13:44:00,
2013-03-12 09:49:00,63.0,61.0,29.86,SSE,163,2.0,4.0,93,0.02,,,0.10,19.0,meteohub,2013-03-12 13:49:00,
2013-03-12 09:54:00,63.0,61.0,29.86,SE,125,1.0,5.0,93,0.02,,,0.10,33.0,meteohub,2013-03-12 13:54:00,
2013-03-12 09:59:00,63.0,61.0,29.87,South,179,0.0,7.0,93,0.02,,,0.10,30.0,meteohub,2013-03-12 13:59:00,
2013-03-12 10:04:00,63.1,61.2,29.87,South,180,0.0,7.0,93,0.01,,,0.10,25.0,meteohub,2013-03-12 14:04:00,
2013-03-12 10:09:00,63.1,61.2,29.88,ESE,119,1.0,7.0,93,0.01,,,0.10,21.0,meteohub,2013-03-12 14:09:00,
2013-03-12 10:14:00,63.1,61.2,29.88,ESE,119,0.0,4.0,93,0.02,,,0.11,33.0,meteohub,2013-03-12 14:14:00,
2013-03-12 10:20:00,63.1,61.2,29.87,ESE,119,0.0,2.0,93,0.02,,,0.11,51.0,meteohub,2013-03-12 14:20:00,
2013-03-12 10:25:00,63.3,61.5,29.88,SE,129,0.0,1.0,94,0.02,,,0.11,49.0,meteohub,2013-03-12 14:25:00,
2013-03-12 10:30:00,63.3,61.5,29.88,SE,130,0.0,3.0,94,0.03,,,0.12,79.0,meteohub,2013-03-12 14:30:00,
2013-03-12 10:35:00,63.5,61.7,29.88,SE,130,0.0,3.0,94,0.03,,,0.12,79.0,meteohub,2013-03-12 14:35:00,
2013-03-12 10:40:00,63.5,61.7,29.88,SE,130,0.0,3.0,94,0.03,,,0.12,86.0,meteohub,2013-03-12 14:40:00,
2013-03-12 10:45:00,63.7,61.9,29.88,WSW,243,0.0,3.0,94,0.02,,,0.13,93.0,meteohub,2013-03-12 14:45:00,
2013-03-12 10:50:00,63.7,61.9,29.88,WSW,243,0.0,3.0,94,0.03,,,0.13,93.0,meteohub,2013-03-12 14:50:00,
2013-03-12 10:55:00,63.7,61.9,29.88,SSW,205,0.0,3.0,94,0.03,,,0.13,98.0,meteohub,2013-03-12 14:55:00,
2013-03-12 11:00:00,63.9,62.1,29.88,SSW,205,0.0,3.0,94,0.03,,,0.13,113.0,meteohub,2013-03-12 15:00:00,
2013-03-12 11:05:00,64.0,62.2,29.88,SSW,205,0.0,3.0,94,0.03,,,0.13,155.0,meteohub,2013-03-12 15:05:00,
2013-03-12 11:10:00,64.0,62.2,29.88,South,188,0.0,3.0,94,0.02,,,0.13,213.0,meteohub,2013-03-12 15:10:00,
2013-03-12 11:15:00,64.2,62.4,29.88,SW,219,4.0,6.0,94,0.02,,,0.13,183.0,meteohub,2013-03-12 15:15:00,
2013-03-12 11:20:00,64.2,62.4,29.88,SSW,198,0.0,6.0,94,0.01,,,0.13,111.0,meteohub,2013-03-12 15:20:00,
2013-03-12 11:25:00,64.4,62.6,29.88,SSW,198,0.0,6.0,94,0.01,,,0.13,100.0,meteohub,2013-03-12 15:25:00,
2013-03-12 11:30:00,64.2,62.4,29.88,SW,227,1.0,4.0,94,0.01,,,0.13,181.0,meteohub,2013-03-12 15:30:00,
2013-03-12 11:35:00,64.4,62.6,29.89,SW,233,0.0,5.0,94,0.01,,,0.13,113.0,meteohub,2013-03-12 15:35:00,
2013-03-12 11:40:00,64.4,62.6,29.89,SW,233,0.0,5.0,94,0.00,,,0.13,97.0,meteohub,2013-03-12 15:40:00,
2013-03-12 11:45:00,64.2,62.4,29.89,SW,236,0.0,4.0,94,0.00,,,0.13,102.0,meteohub,2013-03-12 15:45:00,
2013-03-12 11:50:00,64.2,62.4,29.89,South,177,0.0,4.0,94,0.00,,,0.13,137.0,meteohub,2013-03-12 15:50:00,
2013-03-12 11:55:00,64.4,62.6,29.89,SSW,202,0.0,4.0,94,0.00,,,0.13,181.0,meteohub,2013-03-12 15:55:00,
2013-03-12 12:00:00,64.4,62.6,29.89,WNW,287,0.0,4.0,94,0.00,,,0.13,243.0,meteohub,2013-03-12 16:00:00,
2013-03-12 12:05:00,64.6,62.8,29.89,SW,231,3.0,5.0,94,0.00,,,0.13,218.0,meteohub,2013-03-12 16:05:00,
2013-03-12 12:10:00,64.4,62.6,29.89,SSW,207,2.0,6.0,94,0.00,,,0.13,172.0,meteohub,2013-03-12 16:10:00,
2013-03-12 12:15:00,64.2,62.4,29.89,WSW,240,6.0,6.0,94,0.00,,,0.13,54.0,meteohub,2013-03-12 16:15:00,
2013-03-12 12:20:00,63.7,61.9,29.89,WSW,244,3.0,9.0,94,0.01,,,0.14,278.0,meteohub,2013-03-12 16:20:00,
2013-03-12 12:25:00,63.5,61.7,29.89,WNW,290,3.0,9.0,94,0.01,,,0.14,322.0,meteohub,2013-03-12 16:25:00,
2013-03-12 12:30:00,63.3,61.5,29.89,West,269,0.0,9.0,94,0.01,,,0.14,178.0,meteohub,2013-03-12 16:30:00,
2013-03-12 12:35:00,63.0,61.2,29.89,West,272,2.0,9.0,94,0.01,,,0.14,250.0,meteohub,2013-03-12 16:35:00,
2013-03-12 12:40:00,62.8,61.0,29.89,WNW,294,0.0,9.0,94,0.01,,,0.14,244.0,meteohub,2013-03-12 16:40:00,
2013-03-12 12:45:00,62.4,60.6,29.89,WNW,297,3.0,9.0,94,0.01,,,0.14,199.0,meteohub,2013-03-12 16:45:00,
2013-03-12 12:50:00,62.4,60.6,29.89,West,278,0.0,8.0,94,0.01,,,0.14,248.0,meteohub,2013-03-12 16:50:00,
2013-03-12 12:55:00,62.4,60.6,29.90,NW,305,0.0,8.0,94,0.01,,,0.14,241.0,meteohub,2013-03-12 16:55:00,
2013-03-12 13:00:00,62.2,60.4,29.89,WNW,300,5.0,10.0,94,0.01,,,0.14,190.0,meteohub,2013-03-12 17:00:00,
2013-03-12 13:05:00,62.2,60.4,29.89,West,279,1.0,12.0,94,0.01,,,0.14,146.0,meteohub,2013-03-12 17:05:00,
2013-03-12 13:10:00,62.1,60.3,29.89,West,270,0.0,12.0,94,0.01,,,0.14,127.0,meteohub,2013-03-12 17:10:00,
2013-03-12 13:15:00,61.9,60.1,29.89,SW,234,0.0,12.0,94,0.01,,,0.14,360.0,meteohub,2013-03-12 17:15:00,
2013-03-12 13:20:00,62.1,60.3,29.89,West,281,3.0,11.0,94,0.00,,,0.14,200.0,meteohub,2013-03-12 17:20:00,
2013-03-12 13:25:00,62.1,60.3,29.89,WSW,258,2.0,9.0,94,0.00,,,0.14,163.0,meteohub,2013-03-12 17:25:00,
2013-03-12 13:30:00,62.1,60.3,29.89,West,279,7.0,8.0,94,0.00,,,0.14,179.0,meteohub,2013-03-12 17:30:00,
2013-03-12 13:35:00,61.9,60.1,29.89,SW,233,2.0,8.0,94,0.00,,,0.14,225.0,meteohub,2013-03-12 17:35:00,
2013-03-12 13:40:00,61.5,59.5,29.88,WNW,294,6.0,8.0,93,0.00,,,0.14,258.0,meteohub,2013-03-12 17:40:00,
2013-03-12 13:45:00,61.3,59.4,29.88,West,265,3.0,8.0,93,0.00,,,0.14,213.0,meteohub,2013-03-12 17:45:00,
2013-03-12 13:50:00,61.2,59.2,29.88,West,273,0.0,10.0,93,0.00,,,0.14,183.0,meteohub,2013-03-12 17:50:00,
2013-03-12 13:55:00,60.6,58.6,29.88,NW,307,2.0,10.0,93,0.00,,,0.14,468.0,meteohub,2013-03-12 17:55:00,
2013-03-12 14:01:00,61.0,59.0,29.88,WSW,248,4.0,10.0,93,0.00,,,0.14,471.0,meteohub,2013-03-12 18:01:00,
2013-03-12 14:06:00,61.2,59.2,29.88,West,265,1.0,9.0,93,0.00,,,0.14,445.0,meteohub,2013-03-12 18:06:00,
2013-03-12 14:11:00,61.9,59.9,29.88,SSW,204,2.0,6.0,93,0.00,,,0.14,476.0,meteohub,2013-03-12 18:11:00,
2013-03-12 14:16:00,62.4,60.4,29.88,SW,229,3.0,6.0,93,0.00,,,0.14,476.0,meteohub,2013-03-12 18:16:00,
2013-03-12 14:21:00,62.6,60.6,29.87,West,274,0.0,6.0,93,0.00,,,0.14,475.0,meteohub,2013-03-12 18:21:00,
2013-03-12 14:26:00,63.0,60.6,29.87,WNW,298,2.0,6.0,92,0.00,,,0.14,452.0,meteohub,2013-03-12 18:26:00,
2013-03-12 14:31:00,63.1,60.8,29.87,WSW,252,0.0,6.0,92,0.00,,,0.14,350.0,meteohub,2013-03-12 18:31:00,
2013-03-12 14:36:00,63.3,61.0,29.87,WNW,291,5.0,6.0,92,0.00,,,0.14,283.0,meteohub,2013-03-12 18:36:00,
2013-03-12 14:41:00,63.1,60.8,29.87,SW,234,3.0,8.0,92,0.00,,,0.14,272.0,meteohub,2013-03-12 18:41:00,
2013-03-12 14:46:00,63.1,60.8,29.87,WNW,286,9.0,9.0,92,0.00,,,0.14,213.0,meteohub,2013-03-12 18:46:00,
2013-03-12 14:51:00,63.1,60.8,29.87,West,271,0.0,10.0,92,0.00,,,0.14,272.0,meteohub,2013-03-12 18:51:00,
2013-03-12 14:56:00,63.3,60.6,29.87,WNW,284,14.0,14.0,91,0.00,,,0.14,404.0,meteohub,2013-03-12 18:56:00,
2013-03-12 15:01:00,63.3,60.6,29.87,WSW,238,0.0,14.0,91,0.00,,,0.14,323.0,meteohub,2013-03-12 19:01:00,
2013-03-12 15:06:00,63.5,60.8,29.87,WNW,292,3.0,14.0,91,0.00,,,0.14,445.0,meteohub,2013-03-12 19:06:00,
2013-03-12 15:12:00,63.3,60.6,29.87,WNW,287,6.0,14.0,91,0.00,,,0.14,401.0,meteohub,2013-03-12 19:12:00,
2013-03-12 15:17:00,63.3,60.3,29.87,West,281,5.0,11.0,90,0.00,,,0.14,410.0,meteohub,2013-03-12 19:17:00,
2013-03-12 15:22:00,63.9,60.8,29.87,WNW,291,1.0,11.0,90,0.00,,,0.14,411.0,meteohub,2013-03-12 19:22:00,
2013-03-12 15:27:00,64.0,61.0,29.87,WNW,302,1.0,11.0,90,0.00,,,0.14,413.0,meteohub,2013-03-12 19:27:00,
2013-03-12 15:32:00,63.9,60.6,29.87,West,272,3.0,11.0,89,0.00,,,0.14,475.0,meteohub,2013-03-12 19:32:00,
2013-03-12 15:37:00,63.9,60.6,29.87,WSW,252,1.0,11.0,89,0.00,,,0.14,476.0,meteohub,2013-03-12 19:37:00,
2013-03-12 15:42:00,64.0,60.4,29.87,West,263,1.0,11.0,88,0.00,,,0.14,429.0,meteohub,2013-03-12 19:42:00,
2013-03-12 15:47:00,64.0,60.4,29.86,WNW,286,3.0,12.0,88,0.00,,,0.14,374.0,meteohub,2013-03-12 19:47:00,
2013-03-12 15:52:00,64.0,60.1,29.86,SW,229,1.0,12.0,87,0.00,,,0.14,343.0,meteohub,2013-03-12 19:52:00,
2013-03-12 15:57:00,63.9,59.5,29.86,West,272,2.0,12.0,86,0.00,,,0.14,371.0,meteohub,2013-03-12 19:57:00,
2013-03-12 16:02:00,63.9,59.2,29.86,SW,223,2.0,8.0,85,0.00,,,0.14,418.0,meteohub,2013-03-12 20:02:00,
2013-03-12 16:07:00,64.0,59.4,29.86,WSW,257,2.0,8.0,85,0.00,,,0.14,415.0,meteohub,2013-03-12 20:07:00,
2013-03-12 16:12:00,64.2,59.4,29.86,West,272,1.0,8.0,84,0.00,,,0.14,403.0,meteohub,2013-03-12 20:12:00,
2013-03-12 16:17:00,64.6,59.7,29.86,WNW,291,0.0,11.0,84,0.00,,,0.14,404.0,meteohub,2013-03-12 20:17:00,
2013-03-12 16:22:00,64.8,59.9,29.86,WNW,286,0.0,11.0,84,0.00,,,0.14,388.0,meteohub,2013-03-12 20:22:00,
2013-03-12 16:27:00,64.9,59.7,29.86,WNW,298,1.0,11.0,83,0.00,,,0.14,376.0,meteohub,2013-03-12 20:27:00,
2013-03-12 16:32:00,64.9,59.4,29.86,West,259,1.0,7.0,82,0.00,,,0.14,348.0,meteohub,2013-03-12 20:32:00,
2013-03-12 16:37:00,64.9,59.4,29.86,SW,236,2.0,11.0,82,0.00,,,0.14,355.0,meteohub,2013-03-12 20:37:00,
2013-03-12 16:42:00,64.9,59.0,29.87,West,281,2.0,11.0,81,0.00,,,0.14,302.0,meteohub,2013-03-12 20:42:00,
2013-03-12 16:47:00,64.8,58.8,29.87,SW,231,3.0,10.0,81,0.00,,,0.14,258.0,meteohub,2013-03-12 20:47:00,
2013-03-12 16:52:00,64.6,58.6,29.87,WNW,283,6.0,10.0,81,0.00,,,0.14,236.0,meteohub,2013-03-12 20:52:00,
2013-03-12 16:58:00,64.4,58.1,29.87,NW,304,4.0,10.0,80,0.00,,,0.14,229.0,meteohub,2013-03-12 20:58:00,
2013-03-12 17:02:00,64.2,57.9,29.87,WNW,283,4.0,9.0,80,0.00,,,0.14,223.0,meteohub,2013-03-12 21:02:00,
2013-03-12 17:08:00,64.0,57.7,29.87,West,276,6.0,9.0,80,0.00,,,0.14,225.0,meteohub,2013-03-12 21:08:00,
2013-03-12 17:13:00,64.0,57.7,29.87,West,271,1.0,9.0,80,0.00,,,0.14,225.0,meteohub,2013-03-12 21:13:00,
2013-03-12 17:18:00,64.0,57.7,29.88,West,279,0.0,9.0,80,0.00,,,0.14,211.0,meteohub,2013-03-12 21:18:00,
2013-03-12 17:23:00,64.0,57.7,29.88,WNW,288,0.0,9.0,80,0.00,,,0.14,207.0,meteohub,2013-03-12 21:23:00,
2013-03-12 17:28:00,64.0,58.0,29.86,WSW,241,0.0,-999.0,80,-99.99,,,0.14,204,weatherlink.com 1.10,2013-03-12 21:28:00,
2013-03-12 17:33:00,63.9,57.6,29.88,West,281,1.0,8.0,80,0.00,,,0.14,179.0,meteohub,2013-03-12 21:33:00,
2013-03-12 17:38:00,63.7,57.4,29.88,WSW,244,0.0,10.0,80,0.00,,,0.14,178.0,meteohub,2013-03-12 21:38:00,
2013-03-12 17:43:00,63.7,57.4,29.88,West,279,0.0,10.0,80,0.00,,,0.14,176.0,meteohub,2013-03-12 21:43:00,
2013-03-12 17:48:00,63.5,56.8,29.88,WNW,288,0.0,9.0,79,0.00,,,0.14,176.0,meteohub,2013-03-12 21:48:00,
2013-03-12 17:53:00,63.3,56.7,29.89,SW,232,4.0,7.0,79,0.00,,,0.14,186.0,meteohub,2013-03-12 21:53:00,
2013-03-12 17:58:00,63.3,56.7,29.89,SW,234,0.0,8.0,79,0.00,,,0.14,193.0,meteohub,2013-03-12 21:58:00,
2013-03-12 18:03:00,63.3,56.7,29.89,WNW,292,1.0,8.0,79,0.00,,,0.14,169.0,meteohub,2013-03-12 22:03:00,
2013-03-12 18:08:00,63.3,56.3,29.89,West,271,3.0,8.0,78,0.00,,,0.14,142.0,meteohub,2013-03-12 22:08:00,
2013-03-12 18:13:00,63.1,56.1,29.89,WNW,290,0.0,8.0,78,0.00,,,0.14,123.0,meteohub,2013-03-12 22:13:00,
2013-03-12 18:18:00,63.0,55.9,29.89,SW,219,2.0,8.0,78,0.00,,,0.14,113.0,meteohub,2013-03-12 22:18:00,
2013-03-12 18:23:00,63.0,55.9,29.89,SW,219,0.0,8.0,78,0.00,,,0.14,111.0,meteohub,2013-03-12 22:23:00,
2013-03-12 18:28:00,63.0,55.9,29.89,WSW,240,2.0,6.0,78,0.00,,,0.14,93.0,meteohub,2013-03-12 22:28:00,
2013-03-12 18:33:00,62.8,55.8,29.89,West,274,0.0,8.0,78,0.00,,,0.14,88.0,meteohub,2013-03-12 22:33:00,
2013-03-12 18:38:00,62.6,55.6,29.89,West,274,0.0,8.0,78,0.00,,,0.14,72.0,meteohub,2013-03-12 22:38:00,
2013-03-12 18:43:00,62.4,55.4,29.89,West,274,0.0,3.0,78,0.00,,,0.14,67.0,meteohub,2013-03-12 22:43:00,
2013-03-12 18:48:00,62.2,55.2,29.90,West,272,1.0,3.0,78,0.00,,,0.14,67.0,meteohub,2013-03-12 22:48:00,
2013-03-12 18:54:00,62.1,55.0,29.90,West,275,0.0,5.0,78,0.00,,,0.14,56.0,meteohub,2013-03-12 22:54:00,
2013-03-12 18:59:00,62.1,55.0,29.90,SW,221,0.0,5.0,78,0.00,,,0.14,49.0,meteohub,2013-03-12 22:59:00,
2013-03-12 19:04:00,61.9,54.9,29.90,SW,230,0.0,6.0,78,0.00,,,0.14,44.0,meteohub,2013-03-12 23:04:00,
2013-03-12 19:09:00,61.7,54.9,29.90,WSW,256,1.0,6.0,78,0.00,,,0.14,28.0,meteohub,2013-03-12 23:09:00,
2013-03-12 19:14:00,61.5,54.7,29.90,WSW,256,0.0,6.0,78,0.00,,,0.14,19.0,meteohub,2013-03-12 23:14:00,
2013-03-12 19:19:00,61.3,54.5,29.90,WSW,242,0.0,4.0,78,0.00,,,0.14,14.0,meteohub,2013-03-12 23:19:00,
2013-03-12 19:24:00,61.0,54.1,29.91,WSW,250,2.0,4.0,78,0.00,,,0.14,9.0,meteohub,2013-03-12 23:24:00,
2013-03-12 19:29:00,60.8,54.0,29.91,WNW,285,2.0,4.0,78,0.00,,,0.14,7.0,meteohub,2013-03-12 23:29:00,
2013-03-12 19:34:00,60.6,53.8,29.92,West,276,0.0,4.0,78,0.00,,,0.14,7.0,meteohub,2013-03-12 23:34:00,
2013-03-12 19:39:00,60.4,53.6,29.92,West,280,0.0,4.0,78,0.00,,,0.14,5.0,meteohub,2013-03-12 23:39:00,
2013-03-12 19:44:00,60.3,53.4,29.92,WNW,298,0.0,4.0,78,0.00,,,0.14,0.0,meteohub,2013-03-12 23:44:00,
2013-03-12 19:49:00,60.1,53.2,29.92,West,277,0.0,4.0,78,0.00,,,0.14,0.0,meteohub,2013-03-12 23:49:00,
2013-03-12 19:54:00,59.7,52.5,29.92,WNW,292,0.0,4.0,77,0.00,,,0.14,0.0,meteohub,2013-03-12 23:54:00,
2013-03-12 19:59:00,59.5,52.3,29.92,West,271,1.0,5.0,77,0.00,,,0.14,0.0,meteohub,2013-03-12 23:59:00,
2013-03-12 20:04:00,59.4,52.2,29.92,West,271,0.0,5.0,77,0.00,,,0.14,0.0,meteohub,2013-03-13 00:04:00,
2013-03-12 20:09:00,59.0,51.8,29.92,West,271,0.0,5.0,77,0.00,,,0.14,0.0,meteohub,2013-03-13 00:09:00,
2013-03-12 20:14:00,59.0,51.8,29.92,West,273,0.0,3.0,77,0.00,,,0.14,0.0,meteohub,2013-03-13 00:14:00,
2013-03-12 20:19:00,58.6,51.4,29.92,West,272,0.0,3.0,77,0.00,,,0.14,0.0,meteohub,2013-03-13 00:19:00,
2013-03-12 20:24:00,58.5,51.3,29.93,West,267,0.0,3.0,77,0.00,,,0.14,0.0,meteohub,2013-03-13 00:24:00,
2013-03-12 20:29:00,58.3,51.1,29.93,West,265,1.0,4.0,77,0.00,,,0.14,0.0,meteohub,2013-03-13 00:29:00,
2013-03-12 20:34:00,57.9,50.7,29.93,West,261,0.0,4.0,77,0.00,,,0.14,0.0,meteohub,2013-03-13 00:34:00,
2013-03-12 20:39:00,57.7,50.2,29.93,West,281,1.0,4.0,76,0.00,,,0.14,0.0,meteohub,2013-03-13 00:39:00,
2013-03-12 20:44:00,57.7,50.2,29.93,SW,236,0.0,4.0,76,0.00,,,0.14,0.0,meteohub,2013-03-13 00:44:00,
2013-03-12 20:49:00,57.6,50.0,29.93,WNW,294,0.0,6.0,76,0.00,,,0.14,0.0,meteohub,2013-03-13 00:49:00,
2013-03-12 20:54:00,57.4,49.8,29.93,WNW,295,1.0,6.0,76,0.00,,,0.14,0.0,meteohub,2013-03-13 00:54:00,
2013-03-12 20:59:00,57.4,49.8,29.94,WNW,293,0.0,6.0,76,0.00,,,0.14,0.0,meteohub,2013-03-13 00:59:00,
2013-03-12 21:04:00,57.4,49.8,29.94,SSW,198,0.0,6.0,76,0.00,,,0.14,0.0,meteohub,2013-03-13 01:04:00,
2013-03-12 21:09:00,57.2,49.6,29.94,WNW,296,4.0,6.0,76,0.00,,,0.14,0.0,meteohub,2013-03-13 01:09:00,
2013-03-12 21:14:00,57.0,49.5,29.94,WNW,291,0.0,6.0,76,0.00,,,0.14,0.0,meteohub,2013-03-13 01:14:00,
2013-03-12 21:19:00,57.0,49.5,29.94,WNW,287,7.0,7.0,76,0.00,,,0.14,0.0,meteohub,2013-03-13 01:19:00,
2013-03-12 21:24:00,56.8,49.3,29.94,WSW,257,0.0,9.0,76,0.00,,,0.14,0.0,meteohub,2013-03-13 01:24:00,
2013-03-12 21:29:00,56.8,49.3,29.95,West,271,0.0,9.0,76,0.00,,,0.14,0.0,meteohub,2013-03-13 01:29:00,
2013-03-12 21:34:00,56.7,49.1,29.95,WSW,238,0.0,9.0,76,0.00,,,0.14,0.0,meteohub,2013-03-13 01:34:00,
2013-03-12 21:39:00,56.7,49.1,29.95,West,281,0.0,5.0,76,0.00,,,0.14,0.0,meteohub,2013-03-13 01:39:00,
2013-03-12 21:44:00,56.5,48.9,29.96,WSW,252,0.0,5.0,76,0.00,,,0.14,0.0,meteohub,2013-03-13 01:44:00,
2013-03-12 21:49:00,56.5,48.9,29.96,WSW,252,0.0,5.0,76,0.00,,,0.14,0.0,meteohub,2013-03-13 01:49:00,
2013-03-12 21:54:00,56.1,48.7,29.96,SW,214,0.0,4.0,76,0.00,,,0.14,0.0,meteohub,2013-03-13 01:54:00,
2013-03-12 21:59:00,56.1,48.7,29.96,West,281,1.0,4.0,76,0.00,,,0.14,0.0,meteohub,2013-03-13 01:59:00,
2013-03-12 22:04:00,55.9,48.6,29.96,WNW,282,0.0,5.0,76,0.00,,,0.14,0.0,meteohub,2013-03-13 02:04:00,
2013-03-12 22:10:00,55.8,48.4,29.96,WNW,283,0.0,5.0,76,0.00,,,0.14,0.0,meteohub,2013-03-13 02:10:00,
2013-03-12 22:15:00,55.8,48.4,29.96,NW,308,3.0,5.0,76,0.00,,,0.14,0.0,meteohub,2013-03-13 02:15:00,
2013-03-12 22:20:00,55.8,48.4,29.97,WNW,287,0.0,5.0,76,0.00,,,0.14,0.0,meteohub,2013-03-13 02:20:00,
2013-03-12 22:25:00,55.6,48.2,29.97,West,275,0.0,5.0,76,0.00,,,0.14,0.0,meteohub,2013-03-13 02:25:00,
2013-03-12 22:30:00,55.6,48.2,29.97,West,279,0.0,5.0,76,0.00,,,0.14,0.0,meteohub,2013-03-13 02:30:00,
2013-03-12 22:35:00,55.6,48.2,29.98,WNW,284,0.0,6.0,76,0.00,,,0.14,0.0,meteohub,2013-03-13 02:35:00,
2013-03-12 22:40:00,55.8,48.4,29.98,WNW,296,1.0,6.0,76,0.00,,,0.14,0.0,meteohub,2013-03-13 02:40:00,
2013-03-12 22:45:00,55.9,48.2,29.98,WNW,288,0.0,7.0,75,0.00,,,0.14,0.0,meteohub,2013-03-13 02:45:00,
2013-03-12 22:50:00,55.9,48.2,29.98,West,277,2.0,8.0,75,0.00,,,0.14,0.0,meteohub,2013-03-13 02:50:00,
2013-03-12 22:55:00,55.9,48.2,29.98,West,277,0.0,8.0,75,0.00,,,0.14,0.0,meteohub,2013-03-13 02:55:00,
2013-03-12 23:00:00,55.9,48.2,29.98,WNW,290,0.0,8.0,75,0.00,,,0.14,0.0,meteohub,2013-03-13 03:00:00,
2013-03-12 23:05:00,55.9,48.2,29.99,West,278,0.0,4.0,75,0.00,,,0.14,0.0,meteohub,2013-03-13 03:05:00,
2013-03-12 23:10:00,55.9,48.2,29.99,West,278,0.0,5.0,75,0.00,,,0.14,0.0,meteohub,2013-03-13 03:10:00,
2013-03-12 23:15:00,55.8,48.0,29.99,West,278,0.0,5.0,75,0.00,,,0.14,0.0,meteohub,2013-03-13 03:15:00,
2013-03-12 23:20:00,55.6,47.8,29.99,West,279,0.0,4.0,75,0.00,,,0.14,0.0,meteohub,2013-03-13 03:20:00,
2013-03-12 23:25:00,55.6,47.8,29.99,West,279,0.0,4.0,75,0.00,,,0.14,0.0,meteohub,2013-03-13 03:25:00,
2013-03-12 23:30:00,55.2,47.5,30.00,WNW,286,0.0,4.0,75,0.00,,,0.14,0.0,meteohub,2013-03-13 03:30:00,
2013-03-12 23:35:00,55.2,47.5,30.00,WNW,288,1.0,6.0,75,0.00,,,0.14,0.0,meteohub,2013-03-13 03:35:00,
2013-03-12 23:40:00,55.0,47.3,30.00,WNW,288,3.0,6.0,75,0.00,,,0.14,0.0,meteohub,2013-03-13 03:40:00,
2013-03-12 23:45:00,54.9,47.1,30.00,WNW,290,1.0,6.0,75,0.00,,,0.14,0.0,meteohub,2013-03-13 03:45:00,
2013-03-12 23:50:00,54.9,47.1,30.00,WNW,289,1.0,4.0,75,0.00,,,0.14,0.0,meteohub,2013-03-13 03:50:00,
2013-03-12 23:55:00,54.9,47.1,30.00,WNW,287,0.0,4.0,75,0.00,,,0.14,0.0,meteohub,2013-03-13 03:55:00,